Time;durP1;ratioP1;P1;durP2;ratioP2;P2;SDS_P1;SDS_P2;PMS_P1;PMS_P2;Temp;Humidity;BMP_temperature;BMP_pressure;BME280_temperature;BME280_humidity;BME280_pressure;Samples;Min_cycle;Max_cycle;Signal;HPM_P1;HPM_P2
2021/12/24 00:01:06;;;;;;;3.60;1.80;;;;;;;8.03;100.00;94684.63;4981295;28;20261;-62
2021/12/24 00:03:33;;;;;;;3.67;1.70;;;;;;;7.96;100.00;94690.16;4980312;28;20195;-63
2021/12/24 00:05:59;;;;;;;2.57;1.50;;;;;;;7.90;100.00;94681.66;4980307;28;20205;-63
2021/12/24 00:08:26;;;;;;;3.90;1.83;;;;;;;7.90;100.00;94676.22;4980328;28;20210;-62
2021/12/24 00:10:58;;;;;;;1.97;1.70;;;;;;;7.94;100.00;94671.50;4980627;28;20192;-69
2021/12/24 00:13:25;;;;;;;4.80;2.00;;;;;;;7.91;100.00;94666.91;4980858;28;20237;-63
2021/12/24 00:37:04;;;;;;;3.13;1.90;;;;;;;7.62;100.00;94637.69;4997407;28;20212;-63
2021/12/24 00:39:29;;;;;;;2.17;1.50;;;;;;;7.65;100.00;94632.19;4980054;28;20185;-64
2021/12/24 00:41:54;;;;;;;3.90;1.63;;;;;;;7.60;100.00;94635.38;4979717;28;20189;-64
2021/12/24 00:44:20;;;;;;;3.13;1.50;;;;;;;7.57;100.00;94624.53;4979419;28;20191;-64
2021/12/24 00:46:45;;;;;;;3.97;1.73;;;;;;;7.56;100.00;94629.19;4979538;28;20223;-68
2021/12/24 00:49:11;;;;;;;2.00;1.57;;;;;;;7.56;100.00;94629.19;4979660;28;20193;-68
2021/12/24 00:52:06;;;;;;;3.17;2.03;;;;;;;7.57;100.00;94629.97;4979834;28;20182;-62
2021/12/24 00:57:16;;;;;;;2.43;1.70;;;;;;;7.41;100.00;94614.22;4996851;28;20280;-62
2021/12/24 00:59:41;;;;;;;4.53;2.10;;;;;;;7.47;100.00;94619.97;4979445;28;20189;-62
2021/12/24 01:02:06;;;;;;;2.57;1.70;;;;;;;7.40;100.00;94626.25;4979395;28;20257;-62
2021/12/24 01:04:32;;;;;;;2.53;1.70;;;;;;;7.45;100.00;94617.66;4979662;28;20209;-66
2021/12/24 01:06:58;;;;;;;2.10;1.70;;;;;;;7.48;100.00;94618.78;4979442;28;20210;-64
2021/12/24 01:09:23;;;;;;;2.30;1.70;;;;;;;7.51;100.00;94626.94;4979462;28;20185;-81
2021/12/24 01:11:49;;;;;;;2.03;1.67;;;;;;;7.52;100.00;94614.09;4979226;28;20189;-81
2021/12/24 01:14:14;;;;;;;2.13;1.63;;;;;;;7.55;100.00;94616.00;4979056;28;20198;-81
2021/12/24 01:16:51;;;;;;;3.63;1.80;;;;;;;7.55;100.00;94616.78;4979695;28;20231;-81
2021/12/24 01:19:22;;;;;;;1.90;1.70;;;;;;;7.63;100.00;94615.53;4979470;28;20186;-80
2021/12/24 01:24:22;;;;;;;3.93;1.63;;;;;;;7.66;100.00;94601.16;4996266;28;20388;-65
2021/12/24 01:29:39;;;;;;;2.27;1.70;;;;;;;7.73;100.00;94608.47;4996113;28;20239;-63
2021/12/24 01:42:48;;;;;;;2.33;1.60;;;;;;;8.06;100.00;94597.63;4995969;28;20192;-65
2021/12/24 01:45:15;;;;;;;2.63;1.90;;;;;;;8.08;100.00;94603.41;4978304;28;20265;-65
2021/12/24 01:47:40;;;;;;;4.93;2.13;;;;;;;8.09;100.00;94596.78;4978387;28;20200;-65
2021/12/24 01:50:06;;;;;;;2.60;1.63;;;;;;;8.11;100.00;94599.88;4978400;28;20205;-65
2021/12/24 01:52:31;;;;;;;3.03;1.90;;;;;;;8.16;100.00;94604.84;4978376;28;20237;-65
2021/12/24 01:54:57;;;;;;;2.07;1.60;;;;;;;8.20;100.00;94602.84;4978589;28;20241;-65
2021/12/24 01:57:22;;;;;;;2.40;1.80;;;;;;;8.27;100.00;94602.81;4978225;28;20231;-65
2021/12/24 01:59:47;;;;;;;1.80;1.60;;;;;;;8.31;100.00;94598.09;4978232;28;20206;-65
2021/12/24 02:02:13;;;;;;;3.20;1.60;;;;;;;8.25;100.00;94599.75;4978840;28;20191;-64
2021/12/24 02:04:38;;;;;;;3.30;1.53;;;;;;;8.26;100.00;94601.28;4978879;28;20223;-69
2021/12/24 02:07:04;;;;;;;2.50;1.50;;;;;;;8.29;100.00;94595.03;4995436;28;20199;-69
2021/12/24 02:09:30;;;;;;;2.80;1.93;;;;;;;8.29;100.00;94595.03;4978485;28;20191;-69
2021/12/24 02:11:56;;;;;;;3.67;1.33;;;;;;;8.31;100.00;94589.94;4978382;28;20196;-69
2021/12/24 02:14:24;;;;;;;2.10;1.33;;;;;;;8.31;100.00;94589.94;4977999;28;20196;-69
2021/12/24 02:30:12;;;;;;;2.90;1.60;;;;;;;8.66;100.00;94559.53;4995683;28;20197;-63
2021/12/24 02:32:42;;;;;;;2.33;1.67;;;;;;;8.67;100.00;94555.63;4977783;28;20210;-63
2021/12/24 02:35:09;;;;;;;2.70;1.60;;;;;;;8.77;100.00;94551.19;4978301;28;20186;-63
2021/12/24 02:37:36;;;;;;;1.73;1.40;;;;;;;8.84;100.00;94542.94;4978148;28;20245;-65
2021/12/24 02:40:03;;;;;;;2.43;1.77;;;;;;;8.79;100.00;94536.03;4977797;28;20279;-63
2021/12/24 02:42:30;;;;;;;2.27;1.50;;;;;;;8.89;100.00;94545.94;4978109;28;20194;-63
2021/12/24 02:44:55;;;;;;;3.20;1.80;;;;;;;9.03;100.00;94529.41;4977468;28;20531;-63
2021/12/24 02:55:04;;;;;;;2.17;1.40;;;;;;;9.22;100.00;94506.88;4999373;28;20228;-64
2021/12/24 02:57:31;;;;;;;2.10;1.50;;;;;;;9.25;100.00;94510.75;4981867;28;20215;-78
2021/12/24 03:00:06;;;;;;;1.90;1.60;;;;;;;9.26;100.00;94499.41;4981388;28;20196;-63
2021/12/24 03:02:34;;;;;;;2.03;1.60;;;;;;;9.27;100.00;94500.97;4981604;28;20197;-63
2021/12/24 03:05:01;;;;;;;3.00;1.80;;;;;;;9.31;100.00;94496.22;4981336;28;20195;-63
2021/12/24 03:07:27;;;;;;;3.70;1.40;;;;;;;9.30;100.00;94481.09;4981416;28;20187;-63
2021/12/24 03:09:53;;;;;;;3.47;1.80;;;;;;;9.40;100.00;94476.63;4981755;28;20186;-63
2021/12/24 03:12:18;;;;;;;1.90;1.50;;;;;;;9.43;100.00;94476.53;4981341;28;20205;-63
2021/12/24 03:14:44;;;;;;;2.23;1.40;;;;;;;9.42;100.00;94469.56;4981266;28;20204;-66
2021/12/24 03:17:13;;;;;;;2.37;1.60;;;;;;;9.49;100.00;94469.44;4981631;28;20211;-64
2021/12/24 03:19:39;;;;;;;1.60;1.40;;;;;;;9.50;100.00;94470.97;4981120;28;20188;-64
2021/12/24 03:22:30;;;;;;;3.53;1.60;;;;;;;9.47;100.00;94460.88;4981038;28;20254;-64
2021/12/24 03:24:51;;;;;;;2.53;1.70;;;;;;;9.51;100.00;94471.75;4998127;28;20184;-64
2021/12/24 03:27:16;;;;;;;2.30;2.10;;;;;;;9.53;100.00;94475.56;4981264;28;20202;-64
2021/12/24 03:29:41;;;;;;;1.70;1.50;;;;;;;9.51;100.00;94477.94;4981062;28;20199;-62
2021/12/24 03:32:08;;;;;;;2.53;1.50;;;;;;;9.47;100.00;94471.78;4980636;28;20230;-66
2021/12/24 03:34:33;;;;;;;2.27;1.63;;;;;;;9.48;100.00;94473.31;4981073;28;20200;-68
2021/12/24 03:37:00;;;;;;;2.47;1.80;;;;;;;9.45;100.00;94468.72;4980843;28;20195;-65
2021/12/24 03:39:25;;;;;;;1.60;1.50;;;;;;;9.43;100.00;94471.09;4980865;28;20192;-64
2021/12/24 03:41:51;;;;;;;2.00;1.43;;;;;;;9.38;100.00;94477.03;4980621;28;20195;-65
2021/12/24 03:44:18;;;;;;;2.73;1.67;;;;;;;9.37;100.00;94480.94;4981016;28;20202;-66
2021/12/24 03:46:55;;;;;;;1.77;1.43;;;;;;;9.35;100.00;94483.31;4981392;28;20188;-66
2021/12/24 03:49:40;;;;;;;1.60;1.50;;;;;;;9.39;100.00;94472.34;4981313;28;20233;-65
2021/12/24 03:54:58;;;;;;;1.80;1.50;;;;;;;9.27;100.00;94476.47;4998037;28;20191;-63
2021/12/24 03:57:33;;;;;;;1.83;1.50;;;;;;;9.19;100.00;94472.34;4981018;28;20246;-63
2021/12/24 04:00:07;;;;;;;1.87;1.30;;;;;;;9.09;100.00;94484.19;4980372;28;20202;-63
2021/12/24 04:02:33;;;;;;;1.40;1.30;;;;;;;9.00;100.00;94473.03;4980732;28;20191;-62
2021/12/24 04:04:58;;;;;;;2.87;1.60;;;;;;;8.84;100.00;94472.94;4980652;28;20202;-63
2021/12/24 04:07:24;;;;;;;2.80;1.40;;;;;;;8.77;100.00;94467.59;4980446;28;20194;-62
2021/12/24 04:09:59;;;;;;;2.77;1.47;;;;;;;8.69;100.00;94471.63;4980404;28;20192;-65
2021/12/24 04:12:24;;;;;;;2.03;1.50;;;;;;;8.63;100.00;94467.81;4980684;28;20191;-68
2021/12/24 04:14:51;;;;;;;2.17;1.50;;;;;;;8.54;100.00;94467.59;4980000;28;20202;-68
2021/12/24 04:17:17;;;;;;;2.00;1.30;;;;;;;8.43;100.00;94464.28;4980809;28;20214;-70
2021/12/24 04:25:10;;;;;;;1.70;1.40;;;;;;;8.33;100.00;94448.88;4997965;28;20201;-69
2021/12/24 04:27:36;;;;;;;2.30;1.40;;;;;;;8.27;100.00;94445.06;4979977;28;20273;-63
2021/12/24 04:30:41;;;;;;;2.67;1.47;;;;;;;8.30;100.00;94449.69;4980496;28;20273;-62
2021/12/24 04:33:02;;;;;;;1.73;1.23;;;;;;;8.23;100.00;94455.22;4994628;28;20227;-77
2021/12/24 04:51:41;;;;;;;2.87;1.50;;;;;;;7.86;100.00;94458.06;4997041;28;20188;-64
2021/12/24 05:02:15;;;;;;;1.30;1.20;;;;;;;7.77;100.00;94460.50;4997226;28;20224;-64
2021/12/24 05:04:49;;;;;;;1.27;1.17;;;;;;;7.74;100.00;94455.88;4979917;28;20195;-76
2021/12/24 05:09:56;;;;;;;1.30;1.20;;;;;;;7.81;100.00;94460.47;4996504;28;20230;-62
2021/12/24 05:12:21;;;;;;;2.97;1.23;;;;;;;7.76;100.00;94461.66;4978888;28;20186;-61
2021/12/24 05:14:47;;;;;;;2.00;1.10;;;;;;;7.74;100.00;94455.88;4978205;28;20196;-61
2021/12/24 05:17:29;;;;;;;2.03;1.10;;;;;;;7.76;100.00;94464.38;4978900;28;20213;-61
2021/12/24 05:22:38;;;;;;;2.80;1.50;;;;;;;7.79;100.00;94458.16;4996627;28;20356;-65
2021/12/24 05:25:04;;;;;;;1.37;1.20;;;;;;;7.83;100.00;94453.44;4978978;28;20263;-75
2021/12/24 05:27:29;;;;;;;2.77;1.30;;;;;;;7.92;100.00;94451.00;4978696;28;20195;-62
2021/12/24 05:29:55;;;;;;;2.40;1.30;;;;;;;7.94;100.00;94454.06;4978851;28;20198;-61
2021/12/24 05:32:21;;;;;;;1.63;1.20;;;;;;;7.93;100.00;94459.91;4979175;28;20217;-61
2021/12/24 05:34:46;;;;;;;2.47;1.30;;;;;;;7.98;100.00;94459.47;4978793;28;20252;-62
2021/12/24 05:37:12;;;;;;;1.73;1.20;;;;;;;8.01;100.00;94459.41;4979057;28;20190;-62
2021/12/24 05:39:37;;;;;;;1.80;1.10;;;;;;;7.99;100.00;94450.91;4978559;28;20186;-61
2021/12/24 05:42:04;;;;;;;1.80;1.20;;;;;;;8.04;100.00;94453.16;4978592;28;20221;-61
2021/12/24 05:44:32;;;;;;;3.27;1.33;;;;;;;8.07;100.00;94463.22;4978584;28;20273;-61
2021/12/24 05:46:58;;;;;;;2.37;1.20;;;;;;;8.14;100.00;94451.47;4978643;28;20193;-61
2021/12/24 05:49:23;;;;;;;1.57;1.20;;;;;;;8.29;100.00;94458.25;4978563;28;20200;-61
2021/12/24 05:51:49;;;;;;;3.50;1.20;;;;;;;8.33;100.00;94461.69;4978937;28;20185;-61
2021/12/24 05:54:14;;;;;;;1.10;1.00;;;;;;;8.45;100.00;94456.44;4978166;28;20187;-62
2021/12/24 05:56:40;;;;;;;1.63;1.20;;;;;;;8.50;100.00;94456.00;4978506;28;20191;-62
2021/12/24 05:59:06;;;;;;;2.03;1.13;;;;;;;8.53;100.00;94463.31;4978455;28;20303;-63
2021/12/24 06:01:32;;;;;;;2.57;1.50;;;;;;;8.53;100.00;94462.56;4978682;28;20338;-63
2021/12/24 06:03:57;;;;;;;2.43;1.50;;;;;;;8.50;100.00;94460.66;4978220;28;20237;-61
2021/12/24 06:06:22;;;;;;;1.73;1.27;;;;;;;8.51;100.00;94460.25;4978725;28;20200;-61
2021/12/24 06:08:48;;;;;;;1.40;1.30;;;;;;;8.50;100.00;94469.59;4978735;28;20195;-62
2021/12/24 06:11:13;;;;;;;1.47;1.27;;;;;;;8.47;100.00;94464.97;4978580;28;20187;-61
2021/12/24 06:13:39;;;;;;;1.40;1.20;;;;;;;8.46;100.00;94468.91;4978067;28;20186;-62
2021/12/24 06:16:06;;;;;;;1.77;1.50;;;;;;;8.46;100.00;94476.28;4978289;28;20189;-62
2021/12/24 06:18:31;;;;;;;2.30;1.70;;;;;;;8.45;100.00;94478.22;4978023;28;20205;-78
2021/12/24 06:21:00;;;;;;;1.30;1.20;;;;;;;8.44;100.00;94476.69;4977979;28;20191;-65
2021/12/24 06:23:27;;;;;;;1.70;1.30;;;;;;;8.45;100.00;94477.47;4977777;28;20198;-65
2021/12/24 06:25:59;;;;;;;1.80;1.30;;;;;;;8.49;100.00;94478.94;4995398;28;20192;-63
2021/12/24 06:28:25;;;;;;;1.50;1.27;;;;;;;8.48;100.00;94474.69;4977774;28;20193;-63
2021/12/24 06:30:53;;;;;;;3.10;2.60;;;;;;;8.54;100.00;94473.03;4978434;28;20246;-63
2021/12/24 06:33:18;;;;;;;1.43;1.30;;;;;;;8.49;100.00;94473.47;4977917;28;20256;-63
2021/12/24 06:35:44;;;;;;;1.53;1.40;;;;;;;8.44;100.00;94476.69;4978369;28;20209;-63
2021/12/24 06:38:10;;;;;;;4.57;2.50;;;;;;;8.45;100.00;94483.66;4977614;28;20209;-64
2021/12/24 06:40:36;;;;;;;2.70;1.50;;;;;;;8.42;100.00;94472.84;4977904;28;20195;-64
2021/12/24 06:43:01;;;;;;;3.10;1.60;;;;;;;8.44;100.00;94481.34;4977780;28;20195;-62
2021/12/24 06:45:26;;;;;;;2.83;1.60;;;;;;;8.42;100.00;94473.59;4978218;28;20194;-62
2021/12/24 06:47:55;;;;;;;2.53;1.80;;;;;;;8.46;100.00;94468.91;4977747;28;20285;-62
2021/12/24 06:50:20;;;;;;;2.47;1.57;;;;;;;8.46;100.00;94479.00;4978455;28;20184;-63
2021/12/24 06:52:46;;;;;;;1.70;1.20;;;;;;;8.47;100.00;94484.03;4978322;28;20187;-63
2021/12/24 06:55:11;;;;;;;3.00;1.57;;;;;;;8.50;100.00;94477.78;4977835;28;20192;-61
2021/12/24 06:57:41;;;;;;;2.17;1.40;;;;;;;8.48;100.00;94480.13;4977743;28;20301;-73
2021/12/24 07:00:15;;;;;;;1.47;1.37;;;;;;;8.49;100.00;94478.94;4978226;28;20333;-76
2021/12/24 07:02:40;;;;;;;1.93;1.60;;;;;;;8.52;100.00;94482.81;4978146;28;20198;-69
2021/12/24 07:05:06;;;;;;;3.70;1.57;;;;;;;8.49;100.00;94487.09;4978270;28;20201;-73
2021/12/24 07:07:31;;;;;;;2.43;1.30;;;;;;;8.47;100.00;94492.19;4977505;28;20198;-71
2021/12/24 07:09:56;;;;;;;1.30;1.20;;;;;;;8.50;100.00;94477.78;4977712;28;20198;-71
2021/12/24 07:12:22;;;;;;;1.60;1.30;;;;;;;8.50;100.00;94483.22;4977627;28;20191;-71
2021/12/24 07:14:49;;;;;;;2.30;1.57;;;;;;;8.50;100.00;94483.22;4977633;28;20674;-66
2021/12/24 07:17:15;;;;;;;3.07;1.47;;;;;;;8.48;100.00;94488.28;4977570;28;20195;-63
2021/12/24 07:19:40;;;;;;;2.37;1.43;;;;;;;8.47;100.00;94492.19;4977793;28;20194;-63
2021/12/24 07:22:07;;;;;;;1.53;1.30;;;;;;;8.48;100.00;94488.28;4977517;28;20204;-63
2021/12/24 07:24:33;;;;;;;2.00;1.70;;;;;;;8.63;100.00;94484.16;4977751;28;20201;-64
2021/12/24 07:27:01;;;;;;;1.57;1.43;;;;;;;8.56;100.00;94489.72;4977380;28;20252;-66
2021/12/24 07:29:26;;;;;;;1.77;1.50;;;;;;;8.61;100.00;94491.19;4977518;28;20199;-66
2021/12/24 07:31:52;;;;;;;3.17;1.60;;;;;;;8.61;100.00;94494.69;4977582;28;20193;-62
2021/12/24 07:34:17;;;;;;;2.37;1.73;;;;;;;8.58;100.00;94498.25;4977172;28;20218;-67
2021/12/24 07:36:42;;;;;;;2.53;1.50;;;;;;;8.59;100.00;94494.31;4977988;28;20190;-69
2021/12/24 07:39:08;;;;;;;3.50;2.00;;;;;;;8.59;100.00;94488.09;4979682;28;20270;-68
2021/12/24 07:41:33;;;;;;;1.77;1.50;;;;;;;8.66;100.00;94477.13;4980656;28;20211;-72
2021/12/24 07:43:58;;;;;;;1.93;1.60;;;;;;;8.69;100.00;94481.72;4980683;28;20196;-68
2021/12/24 07:46:31;;;;;;;3.03;1.70;;;;;;;8.67;100.00;94479.44;4980513;28;20281;-68
2021/12/24 07:49:01;;;;;;;2.27;1.60;;;;;;;8.64;100.00;94479.50;4981528;28;20187;-77
2021/12/24 07:54:11;;;;;;;1.73;1.63;;;;;;;8.77;100.00;94473.03;4998414;28;20201;-72
2021/12/24 07:56:36;;;;;;;2.83;2.27;;;;;;;8.74;100.00;94471.16;4980829;28;20183;-71
2021/12/24 07:59:02;;;;;;;3.33;2.37;;;;;;;8.76;100.00;94476.19;4980390;28;20216;-68
2021/12/24 08:01:27;;;;;;;2.80;2.00;;;;;;;8.71;100.00;94482.84;4980513;28;20224;-69
2021/12/24 08:03:55;;;;;;;2.77;2.00;;;;;;;8.69;100.00;94476.28;4980775;28;20219;-73
2021/12/24 08:06:23;;;;;;;3.23;2.00;;;;;;;8.70;100.00;94484.03;4980489;28;20186;-71
2021/12/24 08:08:48;;;;;;;2.70;1.83;;;;;;;8.68;100.00;94477.47;4980633;28;20191;-66
2021/12/24 08:11:14;;;;;;;3.37;1.80;;;;;;;8.66;100.00;94467.00;4980670;28;20213;-68
2021/12/24 08:13:39;;;;;;;2.43;1.57;;;;;;;8.63;100.00;94481.44;4980234;28;20195;-69
2021/12/24 08:16:05;;;;;;;2.27;1.77;;;;;;;8.61;100.00;94486.53;4980484;28;20186;-68
2021/12/24 08:18:30;;;;;;;3.27;1.57;;;;;;;8.57;100.00;94490.47;4979873;28;20221;-68
2021/12/24 08:20:56;;;;;;;2.63;1.70;;;;;;;8.59;100.00;94482.66;4980201;28;20189;-65
2021/12/24 08:23:21;;;;;;;3.07;1.53;;;;;;;8.60;100.00;94484.97;4980515;28;20202;-66
2021/12/24 08:25:46;;;;;;;3.67;1.90;;;;;;;8.53;100.00;94482.34;4980080;28;20194;-65
2021/12/24 08:28:12;;;;;;;2.77;1.90;;;;;;;8.49;100.00;94489.81;4979728;28;20193;-62
2021/12/24 08:30:37;;;;;;;2.33;1.77;;;;;;;8.40;100.00;94492.28;4979974;28;20201;-62
2021/12/24 08:33:03;;;;;;;2.50;1.60;;;;;;;8.32;100.00;94493.59;4979766;28;20211;-64
2021/12/24 08:35:29;;;;;;;2.20;1.80;;;;;;;8.35;100.00;94490.03;4980287;28;20180;-65
2021/12/24 08:37:54;;;;;;;2.13;1.73;;;;;;;8.33;100.00;94491.59;4979775;28;20217;-61
2021/12/24 08:40:20;;;;;;;2.07;1.60;;;;;;;8.30;100.00;94487.75;4979712;28;20266;-62
2021/12/24 08:42:45;;;;;;;1.93;1.70;;;;;;;8.32;100.00;94490.84;4979640;28;20185;-62
2021/12/24 08:45:12;;;;;;;2.30;2.10;;;;;;;8.31;100.00;94483.84;4980341;28;20246;-57
2021/12/24 08:47:38;;;;;;;2.63;1.73;;;;;;;8.32;100.00;94485.41;4979452;28;20244;-59
2021/12/24 08:50:06;;;;;;;3.07;1.87;;;;;;;8.32;100.00;94477.25;4978737;28;20222;-60
2021/12/24 08:52:32;;;;;;;2.40;1.70;;;;;;;8.35;100.00;94473.72;4979456;28;20182;-58
2021/12/24 08:54:57;;;;;;;2.40;1.80;;;;;;;8.39;100.00;94474.44;4996661;28;20182;-63
2021/12/24 08:57:22;;;;;;;2.17;1.60;;;;;;;8.36;100.00;94477.19;4979646;28;20198;-64
2021/12/24 08:59:48;;;;;;;3.37;2.33;;;;;;;8.31;100.00;94481.13;4979670;28;20200;-58
2021/12/24 09:02:13;;;;;;;2.43;1.67;;;;;;;8.27;100.00;94466.06;4979305;28;20181;-58
2021/12/24 09:04:38;;;;;;;7.77;4.27;;;;;;;8.27;100.00;94472.25;4979410;28;20190;-59
2021/12/24 09:07:04;;;;;;;2.07;1.80;;;;;;;8.29;100.00;94475.34;4979130;28;20200;-65
2021/12/24 09:09:29;;;;;;;3.00;1.63;;;;;;;8.29;100.00;94475.34;4979534;28;20193;-63
2021/12/24 09:11:55;;;;;;;1.87;1.60;;;;;;;8.28;100.00;94476.53;4978747;28;20207;-65
2021/12/24 09:14:21;;;;;;;2.20;1.80;;;;;;;8.33;100.00;94469.84;4979389;28;20189;-63
2021/12/24 09:16:48;;;;;;;2.20;1.47;;;;;;;8.33;100.00;94469.84;4979733;28;20190;-64
2021/12/24 09:19:17;;;;;;;3.60;2.77;;;;;;;8.38;100.00;94472.88;4979259;28;20205;-64
2021/12/24 09:21:43;;;;;;;2.27;1.73;;;;;;;8.43;100.00;94475.16;4978657;28;20206;-61
2021/12/24 09:24:09;;;;;;;2.97;1.80;;;;;;;8.44;100.00;94473.97;4978880;28;20197;-55
2021/12/24 09:26:36;;;;;;;3.60;1.70;;;;;;;8.44;100.00;94471.25;4978714;28;20200;-61
2021/12/24 09:29:04;;;;;;;1.63;1.43;;;;;;;8.37;100.00;94476.78;4978578;28;20194;-59
2021/12/24 09:31:29;;;;;;;1.83;1.60;;;;;;;8.37;100.00;94484.94;4979080;28;20189;-61
2021/12/24 09:33:55;;;;;;;1.60;1.50;;;;;;;8.33;100.00;94484.22;4978659;28;20297;-60
2021/12/24 09:36:26;;;;;;;1.57;1.30;;;;;;;8.31;100.00;94483.84;4978747;28;20192;-60
2021/12/24 09:38:53;;;;;;;4.47;2.20;;;;;;;8.29;100.00;94475.34;4978835;28;20357;-59
2021/12/24 09:41:19;;;;;;;3.03;1.60;;;;;;;8.23;100.00;94476.97;4978821;28;20189;-52
2021/12/24 09:43:45;;;;;;;2.90;1.57;;;;;;;8.16;100.00;94476.31;4978902;28;20283;-52
2021/12/24 09:46:12;;;;;;;2.70;1.50;;;;;;;8.10;100.00;94467.06;4978421;28;20236;-49
2021/12/24 09:48:38;;;;;;;1.77;1.50;;;;;;;8.06;100.00;94467.13;4978849;28;20327;-55
2021/12/24 09:51:04;;;;;;;1.97;1.53;;;;;;;8.06;100.00;94464.41;4979044;28;20189;-54
2021/12/24 09:53:29;;;;;;;4.27;1.50;;;;;;;8.10;100.00;94467.06;4978668;28;20211;-60
2021/12/24 09:55:54;;;;;;;2.63;1.83;;;;;;;8.10;100.00;94464.34;4978744;28;20192;-51
2021/12/24 09:58:20;;;;;;;3.07;1.93;;;;;;;8.06;100.00;94461.69;4978297;28;20218;-55
2021/12/24 10:00:45;;;;;;;2.97;1.47;;;;;;;8.05;100.00;94465.56;4995393;28;20192;-64
2021/12/24 10:03:30;;;;;;;2.90;1.83;;;;;;;7.99;100.00;94461.78;4978013;28;20190;-59
2021/12/24 10:05:56;;;;;;;2.53;1.50;;;;;;;7.96;100.00;94457.16;4978654;28;20184;-70
2021/12/24 10:08:23;;;;;;;1.73;1.60;;;;;;;7.98;100.00;94460.22;4978322;28;20227;-68
2021/12/24 10:10:52;;;;;;;3.33;2.13;;;;;;;7.96;100.00;94456.38;4978045;28;20217;-66
2021/12/24 10:13:27;;;;;;;3.73;2.10;;;;;;;8.01;100.00;94456.69;4977947;28;20195;-63
2021/12/24 10:16:02;;;;;;;4.43;3.47;;;;;;;7.95;100.00;94455.63;4978438;28;20235;-66
2021/12/24 10:18:36;;;;;;;2.40;1.87;;;;;;;7.97;100.00;94453.25;4978668;28;20219;-59
2021/12/24 10:21:15;;;;;;;2.50;1.97;;;;;;;8.02;100.00;94447.38;4977259;28;20191;-64
2021/12/24 10:24:02;;;;;;;2.13;1.50;;;;;;;7.99;100.00;94437.31;4977590;28;20188;-60
2021/12/24 10:26:38;;;;;;;2.87;1.60;;;;;;;7.94;100.00;94443.19;4978112;28;20289;-60
2021/12/24 10:29:04;;;;;;;2.70;1.90;;;;;;;7.93;100.00;94436.22;4977541;28;20296;-59
2021/12/24 10:31:30;;;;;;;2.80;1.60;;;;;;;7.95;100.00;94439.31;4977953;28;20255;-62
2021/12/24 10:34:11;;;;;;;2.40;1.93;;;;;;;7.97;100.00;94428.78;4978039;28;20205;-62
2021/12/24 10:36:52;;;;;;;4.53;2.73;;;;;;;7.93;100.00;94430.78;4995139;28;20273;-64
2021/12/24 10:39:19;;;;;;;3.53;2.37;;;;;;;7.97;100.00;94426.06;4977881;28;20230;-65
2021/12/24 10:41:47;;;;;;;2.13;1.87;;;;;;;7.98;100.00;94422.16;4977985;28;20255;-65
2021/12/24 10:44:24;;;;;;;2.50;1.70;;;;;;;7.93;100.00;94414.47;4978162;28;20193;-61
2021/12/24 10:46:59;;;;;;;2.43;1.90;;;;;;;7.94;100.00;94420.69;4978119;28;20193;-62
2021/12/24 10:52:28;;;;;;;3.73;2.67;;;;;;;8.08;100.00;94415.81;4995022;28;20212;-64
2021/12/24 10:54:56;;;;;;;1.97;1.73;;;;;;;8.10;100.00;94421.63;4977568;28;20183;-61
2021/12/24 10:57:25;;;;;;;3.03;1.87;;;;;;;8.15;100.00;94415.69;4977938;28;20217;-63
2021/12/24 10:59:54;;;;;;;2.27;1.60;;;;;;;8.14;100.00;94427.75;4977699;28;20183;-63
2021/12/24 11:02:24;;;;;;;2.13;1.67;;;;;;;8.15;100.00;94423.09;4978074;28;20180;-61
2021/12/24 11:04:51;;;;;;;3.10;2.00;;;;;;;8.14;100.00;94433.22;4977380;28;20190;-60
2021/12/24 11:07:36;;;;;;;3.23;2.00;;;;;;;8.13;100.00;94426.25;4977472;28;20209;-61
2021/12/24 11:10:11;;;;;;;3.00;1.73;;;;;;;8.09;100.00;94414.63;4977563;28;20228;-62
2021/12/24 11:12:39;;;;;;;2.53;2.00;;;;;;;7.99;100.00;94410.13;4977864;28;20185;-59
2021/12/24 11:15:29;;;;;;;1.90;1.63;;;;;;;7.90;100.00;94404.41;4981078;28;20182;-68
2021/12/24 11:17:58;;;;;;;2.10;1.87;;;;;;;7.89;100.00;94405.59;4981493;28;20236;-58
2021/12/24 11:20:24;;;;;;;3.30;1.57;;;;;;;7.86;100.00;94403.69;4981229;28;20181;-59
2021/12/24 11:22:53;;;;;;;2.40;1.60;;;;;;;7.85;100.00;94402.16;4981512;28;20181;-58
2021/12/24 11:25:20;;;;;;;2.57;2.37;;;;;;;7.85;100.00;94396.72;4981715;28;20646;-58
2021/12/24 11:27:46;;;;;;;3.73;3.00;;;;;;;7.82;100.00;94386.69;4980970;28;20188;-59
2021/12/24 11:30:12;;;;;;;5.20;3.23;;;;;;;7.80;100.00;94380.91;4980250;28;20197;-59
2021/12/24 11:32:39;;;;;;;2.47;1.80;;;;;;;7.80;100.00;94367.31;4980824;28;20220;-63
2021/12/24 11:35:05;;;;;;;3.13;1.87;;;;;;;7.80;100.00;94378.19;4981072;28;20192;-67
2021/12/24 11:37:31;;;;;;;2.73;1.90;;;;;;;7.79;100.00;94370.44;4980406;28;20215;-67
2021/12/24 11:39:58;;;;;;;3.33;1.70;;;;;;;7.77;100.00;94373.56;4980499;28;20184;-67
2021/12/24 11:42:29;;;;;;;2.37;1.60;;;;;;;7.73;100.00;94367.41;4980965;28;20205;-68
2021/12/24 11:44:55;;;;;;;3.50;1.87;;;;;;;7.74;100.00;94379.81;4980819;28;20190;-69
2021/12/24 11:47:21;;;;;;;2.13;1.70;;;;;;;7.76;100.00;94379.41;4980749;28;20209;-68
2021/12/24 11:49:47;;;;;;;3.50;1.40;;;;;;;7.73;100.00;94367.41;4980933;28;20212;-62
2021/12/24 11:52:12;;;;;;;3.17;1.73;;;;;;;7.70;100.00;94368.22;4980982;28;20248;-58
2021/12/24 11:54:38;;;;;;;1.90;1.40;;;;;;;7.67;100.00;94358.16;4981121;28;20208;-60
2021/12/24 11:57:15;;;;;;;3.63;2.00;;;;;;;7.64;100.00;94352.78;4980265;28;20199;-59
2021/12/24 11:59:41;;;;;;;2.37;1.80;;;;;;;7.62;100.00;94366.78;4980236;28;20363;-59
2021/12/24 12:02:07;;;;;;;2.20;1.70;;;;;;;7.65;100.00;94359.75;4980709;28;20256;-60
2021/12/24 12:04:33;;;;;;;2.37;1.47;;;;;;;7.64;100.00;94353.56;4980941;28;20194;-61
2021/12/24 12:07:16;;;;;;;1.97;1.57;;;;;;;7.63;100.00;94352.03;4980284;28;20185;-60
2021/12/24 12:09:43;;;;;;;6.40;1.87;;;;;;;7.65;100.00;94348.91;4980312;28;20184;-71
2021/12/24 12:12:13;;;;;;;2.43;1.70;;;;;;;7.64;100.00;94364.41;4980735;28;20192;-68
2021/12/24 12:14:39;;;;;;;3.00;1.80;;;;;;;7.65;100.00;94348.91;4980408;28;20197;-67
2021/12/24 12:17:07;;;;;;;2.13;1.70;;;;;;;7.63;100.00;94357.44;4979935;28;20185;-68
2021/12/24 12:24:58;;;;;;;2.57;1.60;;;;;;;7.68;100.00;94332.53;4996923;28;20224;-68
2021/12/24 12:27:35;;;;;;;2.50;1.90;;;;;;;7.72;100.00;94341.41;4979689;28;20192;-60
2021/12/24 12:30:19;;;;;;;3.50;2.00;;;;;;;7.73;100.00;94340.25;4979874;28;20201;-66
2021/12/24 12:32:45;;;;;;;2.83;2.10;;;;;;;7.74;100.00;94325.47;4980200;28;20284;-66
2021/12/24 12:35:11;;;;;;;2.97;1.50;;;;;;;7.73;100.00;94329.38;4979839;28;20240;-67
2021/12/24 12:37:47;;;;;;;2.57;2.30;;;;;;;7.75;100.00;94320.81;4980078;28;20209;-67
2021/12/24 12:40:12;;;;;;;1.73;1.47;;;;;;;7.77;100.00;94335.53;4979642;28;20188;-71
2021/12/24 12:42:54;;;;;;;3.57;1.60;;;;;;;7.79;100.00;94333.16;4979664;28;20196;-68
2021/12/24 12:45:23;;;;;;;2.23;1.40;;;;;;;7.78;100.00;94331.63;4979708;28;20192;-60
2021/12/24 12:47:57;;;;;;;1.87;1.37;;;;;;;7.83;100.00;94327.66;4979490;28;20194;-59
2021/12/24 12:50:24;;;;;;;1.57;1.30;;;;;;;7.85;100.00;94326.06;4979475;28;20269;-58
2021/12/24 12:52:52;;;;;;;1.87;1.60;;;;;;;7.86;100.00;94316.72;4980246;28;20196;-58
2021/12/24 12:55:34;;;;;;;2.97;1.73;;;;;;;7.89;100.00;94317.84;4979220;28;20268;-58
2021/12/24 12:58:26;;;;;;;3.23;1.80;;;;;;;7.89;100.00;94315.91;4980179;28;20221;-58
2021/12/24 13:01:02;;;;;;;2.23;1.70;;;;;;;7.96;100.00;94315.81;4975527;28;20256;-58
2021/12/24 13:03:34;;;;;;;3.87;2.10;;;;;;;7.98;100.00;94324.31;4978914;28;20249;-69
2021/12/24 13:06:04;;;;;;;2.23;1.63;;;;;;;7.94;100.00;94320.88;4979517;28;20195;-59
2021/12/24 13:08:33;;;;;;;9.53;7.10;;;;;;;7.95;100.00;94319.72;4979069;28;20181;-61
2021/12/24 13:11:10;;;;;;;1.73;1.43;;;;;;;7.93;100.00;94316.63;4979328;28;20217;-59
2021/12/24 13:13:55;;;;;;;1.33;1.20;;;;;;;7.94;100.00;94311.97;4979644;28;20185;-59
2021/12/24 13:16:24;;;;;;;1.40;1.30;;;;;;;7.92;100.00;94309.66;4979868;28;20252;-59
2021/12/24 13:18:58;;;;;;;2.90;1.90;;;;;;;7.90;100.00;94306.56;4979055;28;20223;-60
2021/12/24 13:24:14;;;;;;;1.40;1.30;;;;;;;7.90;100.00;94311.25;4996815;28;20267;-58
2021/12/24 13:26:39;;;;;;;1.70;1.43;;;;;;;7.89;100.00;94299.59;4978595;28;20193;-62
2021/12/24 13:29:12;;;;;;;1.43;1.23;;;;;;;7.91;100.00;94302.69;4978965;28;20277;-63
2021/12/24 13:31:40;;;;;;;1.60;1.50;;;;;;;7.94;100.00;94296.41;4978632;28;20192;-62